createdAt,value
2022-12-08T00:02:32.765Z,-0.29
2022-12-08T00:05:57.066Z,-0.32
2022-12-08T00:09:18.734Z,-0.33
2022-12-08T00:12:24.460Z,-0.34
2022-12-08T00:15:27.243Z,-0.31
2022-12-08T00:18:30.291Z,-0.34
2022-12-08T00:21:36.138Z,-0.33
2022-12-08T00:24:40.025Z,-0.34
2022-12-08T00:27:42.825Z,-0.35
2022-12-08T00:30:45.742Z,-0.34
2022-12-08T00:33:48.477Z,-0.36
2022-12-08T00:36:51.207Z,-0.35
2022-12-08T00:39:54.077Z,-0.35
2022-12-08T00:42:57.467Z,-0.35
2022-12-08T00:46:00.563Z,-0.38
2022-12-08T00:49:04.352Z,-0.37
2022-12-08T00:52:07.680Z,-0.37
2022-12-08T00:55:10.457Z,-0.35
2022-12-08T00:58:13.148Z,-0.32
2022-12-08T01:01:16.602Z,-0.35
2022-12-08T01:04:20.185Z,-0.34
2022-12-08T01:07:22.872Z,-0.33
2022-12-08T01:10:28.681Z,-0.28
2022-12-08T01:13:31.374Z,-0.27
2022-12-08T01:16:36.513Z,-0.23
2022-12-08T01:19:39.319Z,-0.24
2022-12-08T01:22:42.386Z,-0.23
2022-12-08T01:25:45.046Z,-0.20
2022-12-08T01:28:48.225Z,-0.19
2022-12-08T01:31:51.059Z,-0.22
2022-12-08T01:34:53.788Z,-0.14
2022-12-08T01:37:56.553Z,-0.13
2022-12-08T01:40:59.423Z,-0.14
2022-12-08T01:44:25.310Z,-0.15
2022-12-08T01:47:41.427Z,-0.17
2022-12-08T01:50:44.549Z,-0.17
2022-12-08T01:53:48.040Z,-0.18
2022-12-08T01:56:59.424Z,-0.17
2022-12-08T02:00:12.074Z,-0.16
2022-12-08T02:03:25.937Z,-0.14
2022-12-08T02:06:30.903Z,-0.16
2022-12-08T02:09:33.947Z,-0.16
2022-12-08T02:12:36.665Z,-0.16
2022-12-08T02:15:56.888Z,-0.13
2022-12-08T02:19:30.412Z,-0.13
2022-12-08T02:22:45.103Z,-0.16
2022-12-08T02:26:11.013Z,-0.21
2022-12-08T02:29:37.363Z,-0.18
2022-12-08T02:33:13.204Z,-0.14
2022-12-08T02:36:37.735Z,-0.12
2022-12-08T02:39:43.653Z,-0.14
2022-12-08T02:42:56.145Z,-0.15
2022-12-08T02:46:06.041Z,-0.16
2022-12-08T02:49:08.916Z,-0.16
2022-12-08T02:52:14.869Z,-0.14
2022-12-08T02:55:49.867Z,-0.16
2022-12-08T02:59:26.748Z,-0.20
2022-12-08T03:02:35.870Z,-0.20
2022-12-08T03:05:44.875Z,-0.21
2022-12-08T03:09:10.731Z,-0.20
2022-12-08T03:12:26.755Z,-0.18
2022-12-08T03:15:32.133Z,-0.22
2022-12-08T03:18:38.191Z,-0.18
2022-12-08T03:21:42.554Z,-0.15
2022-12-08T03:24:45.882Z,-0.13
2022-12-08T03:27:49.087Z,-0.18
2022-12-08T03:30:54.535Z,-0.17
2022-12-08T03:33:59.201Z,-0.11
2022-12-08T03:37:02.808Z,-0.10
2022-12-08T03:40:13.241Z,-0.05
2022-12-08T03:43:15.939Z,-0.08
2022-12-08T03:49:22.300Z,-0.11
2022-12-08T03:52:31.094Z,-0.08
2022-12-08T03:55:36.718Z,-0.06
2022-12-08T03:58:39.500Z,-0.14
2022-12-08T04:01:42.319Z,-0.08
2022-12-08T04:04:45.128Z,-0.07
2022-12-08T04:07:47.908Z,-0.07
2022-12-08T04:10:50.646Z,-0.07
2022-12-08T04:13:55.265Z,-0.06
2022-12-08T04:16:58.027Z,-0.02
2022-12-08T04:20:07.649Z,-0.04
2022-12-08T04:23:12.237Z,-0.03
2022-12-08T04:26:15.977Z,-0.06
2022-12-08T04:29:18.971Z,-0.05
2022-12-08T04:32:24.580Z,-0.06
2022-12-08T04:35:27.868Z,-0.06
2022-12-08T04:38:30.791Z,-0.08
2022-12-08T04:41:35.245Z,-0.08
2022-12-08T04:44:37.899Z,-0.07
2022-12-08T04:47:40.906Z,-0.06
2022-12-08T04:50:45.408Z,0.00
2022-12-08T04:53:48.385Z,0.00
2022-12-08T04:56:51.151Z,0.01
2022-12-08T04:59:54.135Z,0.01
2022-12-08T05:02:56.883Z,0.04
2022-12-08T05:06:00.938Z,0.06
2022-12-08T05:09:06.822Z,0.02
2022-12-08T05:12:09.553Z,0.02
2022-12-08T05:15:12.268Z,0.03
2022-12-08T05:18:15.972Z,-0.02
2022-12-08T05:21:18.721Z,0.01
2022-12-08T05:24:21.460Z,0.03
2022-12-08T05:27:24.183Z,0.04
2022-12-08T05:30:27.048Z,0.04
2022-12-08T05:33:29.647Z,0.09
2022-12-08T05:36:32.290Z,0.08
2022-12-08T05:39:35.487Z,0.04
2022-12-08T05:42:38.082Z,0.05
2022-12-08T05:45:40.828Z,0.09
2022-12-08T05:48:43.819Z,0.11
2022-12-08T05:51:46.816Z,0.10
2022-12-08T05:54:49.441Z,0.10
2022-12-08T05:57:52.104Z,0.13
2022-12-08T06:00:55.378Z,0.15
2022-12-08T06:03:59.482Z,0.18
2022-12-08T06:07:02.222Z,0.19
2022-12-08T06:10:08.727Z,0.20
2022-12-08T06:13:11.725Z,0.19
2022-12-08T06:16:14.427Z,0.25
2022-12-08T06:19:17.091Z,0.26
2022-12-08T06:22:19.786Z,0.28
2022-12-08T06:25:23.214Z,0.29
2022-12-08T06:28:25.989Z,0.31
2022-12-08T06:31:28.910Z,0.29
2022-12-08T06:34:31.842Z,0.31
2022-12-08T06:37:34.709Z,0.36
2022-12-08T06:40:37.481Z,0.30
2022-12-08T06:43:41.127Z,0.34
2022-12-08T06:46:43.849Z,0.37
2022-12-08T06:49:46.892Z,0.39
2022-12-08T06:53:02.670Z,0.43
2022-12-08T06:56:07.856Z,0.47
2022-12-08T06:59:10.764Z,0.49
2022-12-08T07:02:13.477Z,0.52
2022-12-08T07:05:16.280Z,0.55
2022-12-08T07:08:19.984Z,0.57
2022-12-08T07:11:22.985Z,0.64
2022-12-08T07:14:27.283Z,0.67
2022-12-08T07:17:30.022Z,0.70
2022-12-08T07:20:32.747Z,0.74
2022-12-08T07:23:35.682Z,0.77
2022-12-08T07:26:38.401Z,0.80
2022-12-08T07:29:41.300Z,0.84
2022-12-08T07:32:44.066Z,0.88
2022-12-08T07:35:58.445Z,0.88
2022-12-08T07:39:02.126Z,0.92
2022-12-08T07:42:04.863Z,0.97
2022-12-08T07:45:08.279Z,1.01
2022-12-08T07:48:11.448Z,1.05
2022-12-08T07:51:15.762Z,1.08
2022-12-08T07:54:19.577Z,1.13
2022-12-08T07:57:22.251Z,1.14
2022-12-08T08:00:25.189Z,1.18
2022-12-08T08:03:27.884Z,1.19
2022-12-08T08:06:34.642Z,1.23
2022-12-08T08:09:37.548Z,1.26
2022-12-08T08:12:40.368Z,1.26
2022-12-08T08:15:43.314Z,1.30
2022-12-08T08:18:50.944Z,1.34
2022-12-08T08:21:55.237Z,1.39
2022-12-08T08:24:57.892Z,1.47
2022-12-08T08:28:00.658Z,1.60
2022-12-08T08:31:03.607Z,1.70
2022-12-08T08:34:06.739Z,1.82
2022-12-08T08:37:09.600Z,1.96
2022-12-08T08:40:15.780Z,2.12
2022-12-08T08:43:34.457Z,2.26
2022-12-08T08:46:40.961Z,2.35
2022-12-08T08:49:47.151Z,2.43
2022-12-08T08:52:50.618Z,2.51
2022-12-08T08:55:53.293Z,2.58
2022-12-08T08:58:56.061Z,2.64
2022-12-08T09:01:58.889Z,2.70
2022-12-08T09:05:01.907Z,2.71
2022-12-08T09:08:04.925Z,2.77
2022-12-08T09:11:08.334Z,2.81
2022-12-08T09:14:17.724Z,2.83
2022-12-08T09:17:23.541Z,2.87
2022-12-08T09:20:29.127Z,2.87
2022-12-08T09:23:35.345Z,2.84
2022-12-08T09:26:38.603Z,2.96
2022-12-08T09:29:42.219Z,3.00
2022-12-08T09:32:44.840Z,3.04
2022-12-08T09:35:47.977Z,3.05
2022-12-08T09:38:53.801Z,3.08
2022-12-08T09:42:04.803Z,3.09
2022-12-08T09:45:15.144Z,3.13
2022-12-08T09:48:26.780Z,3.16
2022-12-08T09:51:38.681Z,3.20
2022-12-08T09:54:41.341Z,3.22
2022-12-08T09:57:45.765Z,3.24
2022-12-08T10:00:48.489Z,3.29
2022-12-08T10:03:52.518Z,3.34
2022-12-08T10:07:05.787Z,3.40
2022-12-08T10:10:33.976Z,3.46
2022-12-08T10:14:13.934Z,3.46
2022-12-08T10:17:27.326Z,3.48
2022-12-08T10:20:42.244Z,3.52
2022-12-08T10:23:48.513Z,3.50
2022-12-08T10:26:51.435Z,3.48
2022-12-08T10:29:57.176Z,3.48
2022-12-08T10:33:00.467Z,3.41
2022-12-08T10:36:05.073Z,3.51
2022-12-08T10:39:29.898Z,3.53
2022-12-08T10:42:42.180Z,3.61
2022-12-08T10:45:45.504Z,3.68
2022-12-08T10:48:52.365Z,3.72
2022-12-08T10:51:55.208Z,3.69
2022-12-08T10:55:00.940Z,3.68
2022-12-08T10:58:03.732Z,3.68
2022-12-08T11:01:11.746Z,3.71
2022-12-08T11:04:18.446Z,3.67
2022-12-08T11:07:22.233Z,3.65
2022-12-08T11:10:35.036Z,3.61
2022-12-08T11:13:40.878Z,3.59
2022-12-08T11:16:43.787Z,3.62
2022-12-08T11:19:56.720Z,3.63
2022-12-08T11:22:59.649Z,3.65
2022-12-08T11:26:07.808Z,3.67
2022-12-08T11:29:13.085Z,3.68
2022-12-08T11:32:16.822Z,3.70
2022-12-08T11:35:27.206Z,3.69
2022-12-08T11:38:30.722Z,3.71
2022-12-08T11:41:40.351Z,3.75
2022-12-08T11:44:49.739Z,3.77
2022-12-08T11:48:02.662Z,3.80
2022-12-08T11:51:17.296Z,3.85
2022-12-08T11:54:24.637Z,3.91
2022-12-08T11:57:27.745Z,3.91
2022-12-08T12:00:30.575Z,3.90
2022-12-08T12:03:47.117Z,3.88
2022-12-08T12:07:10.761Z,3.87
2022-12-08T12:10:38.519Z,3.85
2022-12-08T12:14:10.443Z,3.88
2022-12-08T12:17:34.914Z,3.89
2022-12-08T12:20:51.077Z,3.91
2022-12-08T12:23:53.829Z,3.89
2022-12-08T12:26:58.576Z,3.88
2022-12-08T12:30:04.341Z,3.87
2022-12-08T12:33:13.775Z,3.88
2022-12-08T12:36:17.395Z,3.81
2022-12-08T12:39:23.850Z,3.89
2022-12-08T12:42:42.766Z,3.90
2022-12-08T12:45:46.874Z,3.90
2022-12-08T12:48:53.864Z,3.89
2022-12-08T12:51:56.776Z,3.87
2022-12-08T12:54:59.506Z,3.88
2022-12-08T12:58:13.591Z,3.87
2022-12-08T13:01:22.397Z,3.90
2022-12-08T13:04:34.781Z,3.90
2022-12-08T13:07:57.091Z,3.91
2022-12-08T13:11:10.107Z,3.89
2022-12-08T13:14:30.592Z,3.91
2022-12-08T13:17:35.947Z,3.91
2022-12-08T13:20:48.859Z,3.89
2022-12-08T13:24:31.441Z,3.90
2022-12-08T13:27:54.526Z,3.88
2022-12-08T13:31:01.469Z,3.87
2022-12-08T13:34:06.745Z,3.86
2022-12-08T13:37:09.767Z,3.85
2022-12-08T13:40:19.420Z,3.87
2022-12-08T13:43:43.405Z,3.92
2022-12-08T13:47:32.421Z,3.96
2022-12-08T13:57:32.914Z,4.08
2022-12-08T14:00:39.439Z,4.04
2022-12-08T14:04:28.499Z,4.00
2022-12-08T14:07:16.387Z,3.97
2022-12-08T14:10:30.680Z,3.93
2022-12-08T14:13:34.097Z,3.92
2022-12-08T14:16:39.782Z,3.89
2022-12-08T14:20:03.365Z,3.82
2022-12-08T14:23:08.336Z,3.79
2022-12-08T14:26:11.826Z,3.77
2022-12-08T14:29:46.321Z,3.74
2022-12-08T14:32:49.619Z,3.71
2022-12-08T14:35:55.335Z,3.66
2022-12-08T14:38:58.129Z,3.66
2022-12-08T14:42:02.484Z,3.66
2022-12-08T14:45:11.820Z,3.62
2022-12-08T14:48:39.041Z,3.61
2022-12-08T14:51:42.855Z,3.56
2022-12-08T14:54:50.675Z,3.55
2022-12-08T14:57:53.525Z,3.52
2022-12-08T15:01:00.317Z,3.49
2022-12-08T15:04:25.225Z,3.45
2022-12-08T15:07:30.341Z,3.44
2022-12-08T15:10:40.158Z,3.42
2022-12-08T15:13:46.982Z,3.40
2022-12-08T15:16:54.576Z,3.42
2022-12-08T15:19:58.800Z,3.42
2022-12-08T15:23:02.511Z,3.41
2022-12-08T15:26:07.359Z,3.40
2022-12-08T15:29:14.586Z,3.39
2022-12-08T15:32:23.559Z,3.39
2022-12-08T15:35:27.929Z,3.41
2022-12-08T15:38:34.738Z,3.40
2022-12-08T15:41:37.595Z,3.40
2022-12-08T15:44:46.142Z,3.39
2022-12-08T15:47:50.142Z,3.39
2022-12-08T15:50:54.944Z,3.37
2022-12-08T15:53:59.350Z,3.35
2022-12-08T15:57:19.092Z,3.31
2022-12-08T16:04:36.783Z,3.28
2022-12-08T16:07:26.939Z,3.23
2022-12-08T16:10:52.498Z,3.19
2022-12-08T16:13:58.252Z,3.19
2022-12-08T16:17:05.934Z,3.16
2022-12-08T16:20:15.978Z,3.15
2022-12-08T16:23:41.097Z,3.15
2022-12-08T16:30:11.984Z,3.11
2022-12-08T16:33:15.104Z,3.10
2022-12-08T16:36:18.015Z,3.10
2022-12-08T16:39:21.198Z,3.11
2022-12-08T16:42:44.734Z,3.10
2022-12-08T16:45:47.624Z,3.09
2022-12-08T16:48:50.442Z,3.06
2022-12-08T16:51:53.263Z,3.05
2022-12-08T16:54:56.140Z,3.03
2022-12-08T16:57:59.824Z,3.01
2022-12-08T17:01:02.608Z,3.01
2022-12-08T17:07:28.515Z,3.00
2022-12-08T17:10:35.970Z,2.99
2022-12-08T17:13:45.109Z,2.97
2022-12-08T17:16:53.979Z,2.97
2022-12-08T17:19:56.849Z,2.97
2022-12-08T17:22:59.679Z,2.97
2022-12-08T17:26:03.109Z,2.94
2022-12-08T17:29:06.123Z,2.94
2022-12-08T17:32:09.108Z,2.92
2022-12-08T17:35:12.056Z,2.92
2022-12-08T17:38:15.523Z,2.92
2022-12-08T17:41:18.815Z,2.90
2022-12-08T17:44:21.647Z,2.88
2022-12-08T17:47:24.490Z,2.89
2022-12-08T17:50:27.380Z,2.89
2022-12-08T17:53:34.288Z,2.89
2022-12-08T17:56:41.514Z,2.88
2022-12-08T17:59:44.582Z,2.89
2022-12-08T18:02:47.500Z,2.88
2022-12-08T18:05:51.174Z,2.88
2022-12-08T18:08:54.136Z,2.89
2022-12-08T18:11:56.864Z,2.90
2022-12-08T18:15:02.077Z,2.92
2022-12-08T18:18:06.830Z,2.92
2022-12-08T18:21:10.072Z,2.94
2022-12-08T18:24:20.512Z,2.94
2022-12-08T18:27:23.669Z,2.95
2022-12-08T18:30:27.877Z,2.93
2022-12-08T18:33:30.624Z,2.94
2022-12-08T18:36:33.548Z,2.97
2022-12-08T18:39:36.552Z,2.95
2022-12-08T18:42:39.603Z,2.94
2022-12-08T18:45:42.709Z,2.94
2022-12-08T18:48:48.894Z,2.94
2022-12-08T18:51:52.016Z,2.93
2022-12-08T18:55:06.436Z,2.93
2022-12-08T18:58:11.139Z,2.92
2022-12-08T19:01:15.419Z,2.87
2022-12-08T19:04:38.508Z,2.91
2022-12-08T19:07:43.272Z,2.91
2022-12-08T19:10:46.292Z,2.90
2022-12-08T19:13:49.586Z,2.91
2022-12-08T19:16:52.432Z,2.91
2022-12-08T19:19:55.590Z,2.89
2022-12-08T19:22:58.874Z,2.89
2022-12-08T19:26:03.024Z,2.88
2022-12-08T19:29:06.000Z,2.88
2022-12-08T19:32:09.407Z,2.88
2022-12-08T19:35:12.573Z,2.88
2022-12-08T19:38:15.721Z,2.87
2022-12-08T19:41:36.876Z,2.91
2022-12-08T19:44:54.913Z,2.89
2022-12-08T19:47:59.093Z,2.90
2022-12-08T19:51:03.606Z,2.92
2022-12-08T19:54:08.990Z,2.93
2022-12-08T19:57:12.577Z,2.92
2022-12-08T20:00:16.266Z,2.90
2022-12-08T20:03:20.890Z,2.91
2022-12-08T20:06:24.023Z,2.91
2022-12-08T20:09:28.194Z,2.90
2022-12-08T20:12:31.518Z,2.90
2022-12-08T20:15:34.559Z,2.89
2022-12-08T20:18:38.276Z,2.90
2022-12-08T20:21:41.477Z,2.90
2022-12-08T20:24:44.236Z,2.91
2022-12-08T20:27:47.362Z,2.91
2022-12-08T20:30:50.458Z,2.92
2022-12-08T20:33:53.704Z,2.92
2022-12-08T20:36:56.532Z,2.92
2022-12-08T20:40:00.239Z,2.90
2022-12-08T20:43:04.507Z,2.92
2022-12-08T20:46:09.990Z,2.90
2022-12-08T20:49:13.681Z,2.89
2022-12-08T20:52:16.824Z,2.90
2022-12-08T20:55:19.640Z,2.90
2022-12-08T20:58:23.210Z,2.90
2022-12-08T21:01:29.419Z,2.89
2022-12-08T21:04:32.439Z,2.90
2022-12-08T21:07:35.729Z,2.89
2022-12-08T21:10:43.976Z,2.89
2022-12-08T21:13:47.584Z,2.89
2022-12-08T21:16:51.099Z,2.89
2022-12-08T21:19:57.170Z,2.88
2022-12-08T21:23:00.006Z,2.81
2022-12-08T21:26:03.212Z,2.88
2022-12-08T21:29:09.421Z,2.88
2022-12-08T21:32:12.312Z,2.86
2022-12-08T21:35:16.064Z,2.86
2022-12-08T21:38:19.774Z,2.87
2022-12-08T21:41:44.050Z,2.86
2022-12-08T21:44:47.343Z,2.84
2022-12-08T21:47:50.666Z,2.83
2022-12-08T21:50:54.397Z,2.83
2022-12-08T21:53:57.640Z,2.84
2022-12-08T21:57:01.394Z,2.82
2022-12-08T22:00:06.425Z,2.82
2022-12-08T22:03:16.001Z,2.81
2022-12-08T22:06:19.363Z,2.81
2022-12-08T22:09:22.494Z,2.80
2022-12-08T22:12:25.757Z,2.80
2022-12-08T22:15:30.071Z,2.79
2022-12-08T22:18:34.091Z,2.80
2022-12-08T22:21:38.541Z,2.80
2022-12-08T22:24:41.689Z,2.77
2022-12-08T22:27:51.284Z,2.77
2022-12-08T22:30:54.943Z,2.78
2022-12-08T22:33:59.738Z,2.78
2022-12-08T22:37:02.614Z,2.79
2022-12-08T22:40:06.939Z,2.78
2022-12-08T22:43:13.535Z,2.79
2022-12-08T22:46:24.258Z,2.78
2022-12-08T22:49:27.696Z,2.80
2022-12-08T22:52:30.512Z,2.80
2022-12-08T22:55:33.849Z,2.81
2022-12-08T22:58:37.351Z,2.83
2022-12-08T23:01:40.382Z,2.83
2022-12-08T23:04:43.510Z,2.84
2022-12-08T23:07:46.477Z,2.84
2022-12-08T23:10:51.012Z,2.83
2022-12-08T23:13:53.789Z,2.85
2022-12-08T23:16:56.741Z,2.82
2022-12-08T23:19:59.497Z,2.83
2022-12-08T23:23:03.281Z,2.83
2022-12-08T23:26:15.767Z,2.83
2022-12-08T23:29:18.477Z,2.84
2022-12-08T23:32:21.728Z,2.84
2022-12-08T23:35:24.533Z,2.86
2022-12-08T23:38:27.409Z,2.85
2022-12-08T23:41:31.411Z,2.85
2022-12-08T23:44:34.439Z,2.88
2022-12-08T23:47:37.615Z,2.89
2022-12-08T23:50:40.550Z,2.89
2022-12-08T23:53:44.512Z,2.90
2022-12-08T23:56:47.299Z,2.91
2022-12-08T23:59:50.226Z,2.92
